createdAt,value
2023-02-16T00:01:17.754Z,32.73
2023-02-16T00:03:45.638Z,32.50
2023-02-16T00:06:16.072Z,35.10
2023-02-16T00:08:45.446Z,34.73
2023-02-16T00:11:36.525Z,34.73
2023-02-16T00:14:05.134Z,33.47
2023-02-16T00:16:34.263Z,33.23
2023-02-16T00:19:02.017Z,34.17
2023-02-16T00:21:29.648Z,36.47
2023-02-16T00:23:57.320Z,33.90
2023-02-16T00:26:26.673Z,35.07
2023-02-16T00:28:55.817Z,36.00
2023-02-16T00:31:27.209Z,32.97
2023-02-16T00:33:56.436Z,34.23
2023-02-16T00:36:24.301Z,34.77
2023-02-16T00:38:51.931Z,33.97
2023-02-16T00:41:34.670Z,34.00
2023-02-16T00:44:02.485Z,33.70
2023-02-16T00:46:30.219Z,33.20
2023-02-16T00:48:59.282Z,32.97
2023-02-16T00:51:27.198Z,33.03
2023-02-16T00:53:55.208Z,34.37
2023-02-16T00:56:23.179Z,32.30
2023-02-16T00:58:52.499Z,33.53
2023-02-16T01:01:22.310Z,33.53
2023-02-16T01:03:49.974Z,33.03
2023-02-16T01:06:36.197Z,33.30
2023-02-16T01:09:30.656Z,32.37
2023-02-16T01:11:58.629Z,32.27
2023-02-16T01:14:26.806Z,33.17
2023-02-16T01:16:54.497Z,31.00
2023-02-16T01:19:22.181Z,30.93
2023-02-16T01:21:51.201Z,32.83
2023-02-16T01:24:18.939Z,32.80
2023-02-16T01:26:49.296Z,33.63
2023-02-16T01:29:19.124Z,33.63
2023-02-16T01:31:47.192Z,33.50
2023-02-16T01:34:15.548Z,35.00
2023-02-16T01:36:45.137Z,34.63
2023-02-16T01:39:16.668Z,34.03
2023-02-16T01:41:52.454Z,36.60
2023-02-16T01:44:25.112Z,34.10
2023-02-16T01:46:54.401Z,34.17
2023-02-16T01:49:22.694Z,33.27
2023-02-16T01:51:54.855Z,35.07
2023-02-16T01:54:34.625Z,34.03
2023-02-16T01:57:07.102Z,33.87
2023-02-16T01:59:42.360Z,34.37
2023-02-16T02:02:15.531Z,32.43
2023-02-16T02:05:03.754Z,32.87
2023-02-16T02:07:36.228Z,32.40
2023-02-16T02:10:10.661Z,32.50
2023-02-16T02:12:44.253Z,32.67
2023-02-16T02:15:12.720Z,31.30
2023-02-16T02:17:40.386Z,33.43
2023-02-16T02:20:12.114Z,32.77
2023-02-16T02:23:29.638Z,32.47
2023-02-16T02:26:27.053Z,32.07
2023-02-16T02:29:07.429Z,32.77
2023-02-16T02:31:43.994Z,31.67
2023-02-16T02:37:10.406Z,34.27
2023-02-16T02:39:45.191Z,34.47
2023-02-16T02:42:17.257Z,35.37
2023-02-16T02:44:48.536Z,36.17
2023-02-16T02:47:16.580Z,36.20
2023-02-16T02:49:50.568Z,33.90
2023-02-16T02:52:18.465Z,34.80
2023-02-16T02:55:05.593Z,35.07
2023-02-16T02:57:55.259Z,33.20
2023-02-16T03:00:44.102Z,34.03
2023-02-16T03:03:17.344Z,34.80
2023-02-16T03:05:47.194Z,33.40
2023-02-16T03:08:17.604Z,33.17
2023-02-16T03:11:06.976Z,32.30
2023-02-16T03:13:38.272Z,34.83
2023-02-16T03:16:11.363Z,35.87
2023-02-16T03:18:58.495Z,37.57
2023-02-16T03:21:44.333Z,37.40
2023-02-16T03:24:32.720Z,35.73
2023-02-16T03:27:17.896Z,36.53
2023-02-16T03:29:46.973Z,34.60
2023-02-16T03:32:16.522Z,35.53
2023-02-16T03:34:49.687Z,35.47
2023-02-16T03:37:17.451Z,32.17
2023-02-16T03:40:03.903Z,32.97
2023-02-16T03:42:31.613Z,32.93
2023-02-16T03:44:59.250Z,34.83
2023-02-16T03:47:28.356Z,34.60
2023-02-16T03:49:56.093Z,32.57
2023-02-16T03:52:23.801Z,33.27
2023-02-16T03:54:51.422Z,31.30
2023-02-16T03:57:19.051Z,33.03
2023-02-16T03:59:47.063Z,34.60
2023-02-16T04:02:14.795Z,32.63
2023-02-16T04:04:43.832Z,31.80
2023-02-16T04:07:11.727Z,33.03
2023-02-16T04:09:39.415Z,32.47
2023-02-16T04:12:25.752Z,33.10
2023-02-16T04:14:53.423Z,32.17
2023-02-16T04:17:21.051Z,33.80
2023-02-16T04:19:50.322Z,33.27
2023-02-16T04:22:18.109Z,34.27
2023-02-16T04:24:45.799Z,34.97
2023-02-16T04:27:13.441Z,34.50
2023-02-16T04:29:41.134Z,36.83
2023-02-16T04:32:08.890Z,36.67
2023-02-16T04:37:23.598Z,37.23
2023-02-16T04:39:51.241Z,33.80
2023-02-16T04:42:18.912Z,34.23
2023-02-16T04:44:46.614Z,34.97
2023-02-16T04:47:14.275Z,34.13
2023-02-16T04:49:41.930Z,33.67
2023-02-16T04:52:09.638Z,33.97
2023-02-16T04:54:38.712Z,33.90
2023-02-16T04:57:06.485Z,33.07
2023-02-16T04:59:34.114Z,32.90
2023-02-16T05:02:01.813Z,32.10
2023-02-16T05:04:29.675Z,32.87
2023-02-16T05:06:57.463Z,31.67
2023-02-16T05:09:25.184Z,31.87
2023-02-16T05:12:11.830Z,30.07
2023-02-16T05:14:48.490Z,32.27
2023-02-16T05:17:17.846Z,32.40
2023-02-16T05:19:48.749Z,32.13
2023-02-16T05:22:16.779Z,30.63
2023-02-16T05:24:44.538Z,30.37
2023-02-16T05:27:16.978Z,29.27
2023-02-16T05:29:44.797Z,27.93
2023-02-16T05:32:12.540Z,28.70
2023-02-16T05:37:31.014Z,28.40
2023-02-16T05:39:58.627Z,27.57
2023-02-16T05:42:27.656Z,26.17
2023-02-16T05:44:55.274Z,27.27
2023-02-16T05:47:22.959Z,25.13
2023-02-16T05:49:50.635Z,26.27
2023-02-16T05:52:18.339Z,26.67
2023-02-16T05:54:46.010Z,25.20
2023-02-16T05:57:13.661Z,25.00
2023-02-16T05:59:42.655Z,25.73
2023-02-16T06:02:10.584Z,24.53
2023-02-16T06:04:38.282Z,24.43
2023-02-16T06:07:05.943Z,24.67
2023-02-16T06:09:33.805Z,24.33
2023-02-16T06:12:01.464Z,26.10
2023-02-16T06:14:29.156Z,24.57
2023-02-16T06:16:58.897Z,24.77
2023-02-16T06:19:26.621Z,23.93
2023-02-16T06:21:54.303Z,24.57
2023-02-16T06:24:21.944Z,25.20
2023-02-16T06:26:49.625Z,24.00
2023-02-16T06:29:17.964Z,25.40
2023-02-16T06:31:45.680Z,25.43
2023-02-16T06:34:14.734Z,25.43
2023-02-16T06:36:42.798Z,24.47
2023-02-16T06:39:10.528Z,24.73
2023-02-16T06:41:40.364Z,25.50
2023-02-16T06:44:12.348Z,24.07
2023-02-16T06:46:40.325Z,25.57
2023-02-16T06:49:08.504Z,25.10
2023-02-16T06:51:37.486Z,25.47
2023-02-16T06:54:05.450Z,25.37
2023-02-16T06:56:33.231Z,27.63
2023-02-16T06:59:00.901Z,27.00
2023-02-16T07:01:28.758Z,25.13
2023-02-16T07:03:58.291Z,26.57
2023-02-16T07:06:27.804Z,25.97
2023-02-16T07:08:57.038Z,25.33
2023-02-16T07:11:24.805Z,27.17
2023-02-16T07:13:52.594Z,27.57
2023-02-16T07:16:20.269Z,27.23
2023-02-16T07:18:48.014Z,28.57
2023-02-16T07:21:16.342Z,26.33
2023-02-16T07:23:44.044Z,27.47
2023-02-16T07:26:13.124Z,27.43
2023-02-16T07:28:40.815Z,25.30
2023-02-16T07:31:12.199Z,26.97
2023-02-16T07:33:40.321Z,26.30
2023-02-16T07:36:08.850Z,26.83
2023-02-16T07:38:36.644Z,24.90
2023-02-16T07:41:07.814Z,26.47
2023-02-16T07:43:38.518Z,24.87
2023-02-16T07:46:06.575Z,26.87
2023-02-16T07:48:34.337Z,24.57
2023-02-16T07:51:02.286Z,24.90
2023-02-16T07:53:30.288Z,24.93
2023-02-16T07:55:58.070Z,24.33
2023-02-16T07:58:29.064Z,25.17
2023-02-16T08:01:07.745Z,23.33
2023-02-16T08:03:35.471Z,24.93
2023-02-16T08:06:03.807Z,24.30
2023-02-16T08:08:32.005Z,24.97
2023-02-16T08:10:59.693Z,23.73
2023-02-16T08:13:27.405Z,23.63
2023-02-16T08:15:55.039Z,23.03
2023-02-16T08:18:24.045Z,23.17
2023-02-16T08:21:03.832Z,23.70
2023-02-16T08:23:32.127Z,24.37
2023-02-16T08:26:00.011Z,24.87
2023-02-16T08:28:29.047Z,24.40
2023-02-16T08:30:56.915Z,24.57
2023-02-16T08:33:26.055Z,24.97
2023-02-16T08:35:53.704Z,25.17
2023-02-16T08:38:22.819Z,24.37
2023-02-16T08:40:50.597Z,25.37
2023-02-16T08:43:18.346Z,26.13
2023-02-16T08:45:47.387Z,24.47
2023-02-16T08:48:15.229Z,24.87
2023-02-16T08:50:53.269Z,24.43
2023-02-16T08:53:21.678Z,23.83
2023-02-16T08:55:53.143Z,24.63
2023-02-16T08:58:20.899Z,23.83
2023-02-16T09:00:49.673Z,24.47
2023-02-16T09:03:18.948Z,24.17
2023-02-16T09:05:52.820Z,23.43
2023-02-16T09:08:20.582Z,24.00
2023-02-16T09:10:49.663Z,24.27
2023-02-16T09:13:17.373Z,24.80
2023-02-16T09:15:45.271Z,23.80
2023-02-16T09:18:14.058Z,22.57
2023-02-16T09:20:45.622Z,24.13
2023-02-16T09:23:15.838Z,22.43
2023-02-16T09:25:43.531Z,23.23
2023-02-16T09:28:11.604Z,25.53
2023-02-16T09:30:42.770Z,24.70
2023-02-16T09:33:10.502Z,23.13
2023-02-16T09:35:39.736Z,23.10
2023-02-16T09:38:07.983Z,22.90
2023-02-16T09:40:37.446Z,22.27
2023-02-16T09:43:10.197Z,24.97
2023-02-16T09:45:42.588Z,25.97
2023-02-16T09:48:17.101Z,25.07
2023-02-16T09:50:54.894Z,25.77
2023-02-16T09:53:25.294Z,27.03
2023-02-16T09:56:03.233Z,27.13
2023-02-16T09:58:35.549Z,27.73
2023-02-16T10:01:09.271Z,27.50
2023-02-16T10:03:47.408Z,28.80
2023-02-16T10:06:28.685Z,28.00
2023-02-16T10:08:59.115Z,27.77
2023-02-16T10:11:41.735Z,30.27
2023-02-16T10:14:16.310Z,29.67
2023-02-16T10:16:47.064Z,29.93
2023-02-16T10:19:20.848Z,29.00
2023-02-16T10:21:52.570Z,32.30
2023-02-16T10:24:20.500Z,35.60
2023-02-16T10:26:54.706Z,36.70
2023-02-16T10:29:23.995Z,37.03
2023-02-16T10:31:59.822Z,42.03
2023-02-16T10:34:39.722Z,38.80
2023-02-16T10:37:19.033Z,38.00
2023-02-16T10:39:51.885Z,37.70
2023-02-16T10:42:25.505Z,39.67
2023-02-16T10:44:57.348Z,41.10
2023-02-16T10:47:31.542Z,38.07
2023-02-16T10:49:59.238Z,41.60
2023-02-16T10:52:27.785Z,44.30
2023-02-16T10:54:55.643Z,47.13
2023-02-16T10:57:27.735Z,51.03
2023-02-16T10:59:56.328Z,49.20
2023-02-16T11:02:26.670Z,49.60
2023-02-16T11:04:55.776Z,52.43
2023-02-16T11:07:25.480Z,53.80
2023-02-16T11:09:55.460Z,53.40
2023-02-16T11:12:32.950Z,50.43
2023-02-16T11:20:13.150Z,49.90
2023-02-16T11:22:41.570Z,49.93
2023-02-16T11:25:23.536Z,50.13
2023-02-16T11:27:54.828Z,48.10
2023-02-16T11:30:32.161Z,50.13
2023-02-16T11:33:02.136Z,49.47
2023-02-16T11:35:31.793Z,49.33
2023-02-16T11:37:59.763Z,49.73
2023-02-16T11:40:30.683Z,53.67
2023-02-16T11:43:02.731Z,54.57
2023-02-16T11:45:32.940Z,53.73
2023-02-16T11:48:03.150Z,54.93
2023-02-16T11:50:35.523Z,56.43
2023-02-16T11:53:18.615Z,56.57
2023-02-16T11:55:52.187Z,53.60
2023-02-16T11:58:26.306Z,52.17
2023-02-16T12:01:03.427Z,55.30
2023-02-16T12:04:01.025Z,52.70
2023-02-16T12:06:42.481Z,49.77
2023-02-16T12:09:21.508Z,50.33
2023-02-16T12:12:06.290Z,51.83
2023-02-16T12:14:59.711Z,51.67
2023-02-16T12:17:40.607Z,55.50
2023-02-16T12:20:23.458Z,51.73
2023-02-16T12:23:01.991Z,49.80
2023-02-16T12:25:38.364Z,51.10
2023-02-16T12:28:17.046Z,53.50
2023-02-16T12:30:56.315Z,53.40
2023-02-16T12:33:38.411Z,52.03
2023-02-16T12:36:41.764Z,52.20
2023-02-16T12:39:20.896Z,52.63
2023-02-16T12:42:18.344Z,58.10
2023-02-16T12:44:52.152Z,57.30
2023-02-16T12:47:30.200Z,59.03
2023-02-16T12:50:04.465Z,59.43
2023-02-16T12:52:40.704Z,59.60
2023-02-16T12:55:23.067Z,59.07
2023-02-16T12:58:02.898Z,57.67
2023-02-16T13:00:43.041Z,57.23
2023-02-16T13:03:28.261Z,60.13
2023-02-16T13:06:22.149Z,57.53
2023-02-16T13:08:58.704Z,56.40
2023-02-16T13:11:39.393Z,58.80
2023-02-16T13:14:18.691Z,60.60
2023-02-16T13:16:53.549Z,57.90
2023-02-16T13:19:26.050Z,61.40
2023-02-16T13:22:40.070Z,57.47
2023-02-16T13:25:39.489Z,57.87
2023-02-16T13:28:25.784Z,59.17
2023-02-16T13:31:16.324Z,62.40
2023-02-16T13:33:58.231Z,61.07
2023-02-16T13:36:50.132Z,62.10
2023-02-16T13:39:44.200Z,63.27
2023-02-16T13:42:44.628Z,61.17
2023-02-16T13:45:19.523Z,60.47
2023-02-16T13:47:51.032Z,59.80
2023-02-16T13:50:32.090Z,59.07
2023-02-16T13:53:19.655Z,61.50
2023-02-16T13:55:53.763Z,59.70
2023-02-16T13:58:34.595Z,59.70
2023-02-16T14:01:45.845Z,62.17
2023-02-16T14:04:55.887Z,59.80
2023-02-16T14:07:41.254Z,60.17
2023-02-16T14:10:16.768Z,61.20
2023-02-16T14:12:47.964Z,60.27
2023-02-16T14:15:23.534Z,59.67
2023-02-16T14:17:54.614Z,60.07
2023-02-16T14:20:33.155Z,59.00
2023-02-16T14:23:06.229Z,55.07
2023-02-16T14:25:41.127Z,54.60
2023-02-16T14:28:49.053Z,56.63
2023-02-16T14:31:23.814Z,54.03
2023-02-16T14:34:04.629Z,53.57
2023-02-16T14:36:37.881Z,54.17
2023-02-16T14:39:16.691Z,54.70
2023-02-16T14:41:47.919Z,53.77
2023-02-16T14:44:41.908Z,56.63
2023-02-16T14:47:19.273Z,54.47
2023-02-16T14:50:21.146Z,55.60
2023-02-16T14:53:11.940Z,53.13
2023-02-16T14:56:15.505Z,51.60
2023-02-16T14:58:55.248Z,51.43
2023-02-16T15:01:29.127Z,51.23
2023-02-16T15:04:00.794Z,52.47
2023-02-16T15:06:36.468Z,56.30
2023-02-16T15:09:10.555Z,54.40
2023-02-16T15:12:00.636Z,55.97
2023-02-16T15:14:33.576Z,53.93
2023-02-16T15:17:09.666Z,57.60
2023-02-16T15:19:41.057Z,54.53
2023-02-16T15:22:19.664Z,56.83
2023-02-16T15:25:02.099Z,57.07
2023-02-16T15:27:35.652Z,54.77
2023-02-16T15:30:16.316Z,53.80
2023-02-16T15:32:54.008Z,54.50
2023-02-16T15:38:26.731Z,55.50
2023-02-16T15:40:59.174Z,54.23
2023-02-16T15:43:36.760Z,54.30
2023-02-16T15:46:10.058Z,51.50
2023-02-16T15:48:42.126Z,53.63
2023-02-16T15:51:17.762Z,50.07
2023-02-16T15:53:52.938Z,51.33
2023-02-16T15:56:32.201Z,49.93
2023-02-16T15:59:07.542Z,49.70
2023-02-16T16:01:39.397Z,50.47
2023-02-16T16:04:28.840Z,49.07
2023-02-16T16:07:01.189Z,50.20
2023-02-16T16:09:33.899Z,49.67
2023-02-16T16:12:07.801Z,49.37
2023-02-16T16:14:43.545Z,50.57
2023-02-16T16:17:17.621Z,49.53
2023-02-16T16:19:49.134Z,49.60
2023-02-16T16:22:37.166Z,49.10
2023-02-16T16:25:34.632Z,49.27
2023-02-16T16:28:05.923Z,49.97
2023-02-16T16:30:44.950Z,49.93
2023-02-16T16:33:18.013Z,48.97
2023-02-16T16:35:50.908Z,49.33
2023-02-16T16:38:26.883Z,50.33
2023-02-16T16:41:00.491Z,48.33
2023-02-16T16:43:34.541Z,49.93
2023-02-16T16:46:17.877Z,50.53
2023-02-16T16:48:50.977Z,49.03
2023-02-16T16:51:23.893Z,49.63
2023-02-16T16:54:01.458Z,50.27
2023-02-16T16:56:33.395Z,50.80
2023-02-16T16:59:04.817Z,48.43
2023-02-16T17:01:39.797Z,51.30
2023-02-16T17:04:11.171Z,51.63
2023-02-16T17:06:42.820Z,51.27
2023-02-16T17:09:15.916Z,52.57
2023-02-16T17:11:48.456Z,52.53
2023-02-16T17:14:21.036Z,57.03
2023-02-16T17:16:53.704Z,53.57
2023-02-16T17:19:28.236Z,55.17
2023-02-16T17:21:59.804Z,54.30
2023-02-16T17:24:31.450Z,53.43
2023-02-16T17:27:02.562Z,54.33
2023-02-16T17:29:33.990Z,56.47
2023-02-16T17:32:07.341Z,61.63
2023-02-16T17:34:38.547Z,65.63
2023-02-16T17:37:09.956Z,67.13
2023-02-16T17:39:42.027Z,69.17
2023-02-16T17:42:14.486Z,68.63
2023-02-16T17:44:45.840Z,66.63
2023-02-16T17:47:19.883Z,64.13
2023-02-16T17:49:51.595Z,65.43
2023-02-16T17:52:22.919Z,63.07
2023-02-16T17:54:54.490Z,65.47
2023-02-16T17:57:25.756Z,65.07
2023-02-16T17:59:57.132Z,63.47
2023-02-16T18:02:29.821Z,62.30
2023-02-16T18:05:01.387Z,68.60
2023-02-16T18:07:32.979Z,73.47
2023-02-16T18:10:04.226Z,77.67
2023-02-16T18:12:35.693Z,75.03
2023-02-16T18:15:06.918Z,77.27
2023-02-16T18:17:39.672Z,72.50
2023-02-16T18:20:11.951Z,71.43
2023-02-16T18:22:43.137Z,71.67
2023-02-16T18:25:14.898Z,72.40
2023-02-16T18:27:46.159Z,71.87
2023-02-16T18:30:18.563Z,71.40
2023-02-16T18:32:51.685Z,70.80
2023-02-16T18:35:23.594Z,74.07
2023-02-16T18:37:55.199Z,72.67
2023-02-16T18:40:26.514Z,71.50
2023-02-16T18:42:58.046Z,72.83
2023-02-16T18:45:29.709Z,74.73
2023-02-16T18:48:02.307Z,76.17
2023-02-16T18:50:33.462Z,77.07
2023-02-16T18:53:04.746Z,81.67
2023-02-16T18:55:36.692Z,83.20
2023-02-16T18:58:09.634Z,84.37
2023-02-16T19:00:40.645Z,79.50
2023-02-16T19:03:13.226Z,76.80
2023-02-16T19:05:44.198Z,77.93
2023-02-16T19:08:15.363Z,74.87
2023-02-16T19:10:46.743Z,77.57
2023-02-16T19:13:17.903Z,73.10
2023-02-16T19:15:48.983Z,74.33
2023-02-16T19:18:21.491Z,76.87
2023-02-16T19:20:52.976Z,76.60
2023-02-16T19:23:24.040Z,73.37
2023-02-16T19:25:55.860Z,73.57
2023-02-16T19:28:27.042Z,71.30
2023-02-16T19:31:04.516Z,76.00
2023-02-16T19:33:37.297Z,78.07
2023-02-16T19:38:57.841Z,75.07
2023-02-16T19:41:31.646Z,76.83
2023-02-16T19:44:03.219Z,73.37
2023-02-16T19:46:35.597Z,73.77
2023-02-16T19:49:08.334Z,74.70
2023-02-16T19:51:39.922Z,74.67
2023-02-16T19:54:11.569Z,74.77
2023-02-16T19:56:43.507Z,74.30
2023-02-16T19:59:16.394Z,79.20
2023-02-16T20:01:47.608Z,75.90
2023-02-16T20:04:20.409Z,74.83
2023-02-16T20:06:52.585Z,77.43
2023-02-16T20:09:24.455Z,77.93
2023-02-16T20:11:56.145Z,78.53
2023-02-16T20:14:27.044Z,80.23
2023-02-16T20:16:58.448Z,81.30
2023-02-16T20:19:31.843Z,81.07
2023-02-16T20:22:03.193Z,83.83
2023-02-16T20:24:35.208Z,81.47
2023-02-16T20:27:06.685Z,85.17
2023-02-16T20:29:38.111Z,82.73
2023-02-16T20:32:09.307Z,83.03
2023-02-16T20:34:42.171Z,91.57
2023-02-16T20:37:13.496Z,92.20
2023-02-16T20:39:44.635Z,92.20
2023-02-16T20:42:15.924Z,90.77
2023-02-16T20:44:47.474Z,89.13
2023-02-16T20:47:18.923Z,89.10
2023-02-16T20:49:51.809Z,92.33
2023-02-16T20:52:23.016Z,86.57
2023-02-16T20:54:53.962Z,92.13
2023-02-16T20:57:27.326Z,89.27
2023-02-16T20:59:59.009Z,87.73
2023-02-16T21:02:30.500Z,88.53
2023-02-16T21:05:03.552Z,89.30
2023-02-16T21:07:34.940Z,95.20
2023-02-16T21:10:06.449Z,97.10
2023-02-16T21:12:37.664Z,96.03
2023-02-16T21:15:11.074Z,90.70
2023-02-16T21:17:42.600Z,86.00
2023-02-16T21:20:15.477Z,90.43
2023-02-16T21:22:46.597Z,88.10
2023-02-16T21:25:18.087Z,89.83
2023-02-16T21:27:49.102Z,93.17
2023-02-16T21:30:20.535Z,91.53
2023-02-16T21:32:51.640Z,89.53
2023-02-16T21:35:24.186Z,92.50
2023-02-16T21:37:55.674Z,90.50
2023-02-16T21:40:52.959Z,94.77
2023-02-16T21:43:24.324Z,90.97
2023-02-16T21:46:01.825Z,92.37
2023-02-16T21:48:49.278Z,90.33
2023-02-16T21:51:25.119Z,91.00
2023-02-16T21:53:57.635Z,87.17
2023-02-16T21:56:35.630Z,91.77
2023-02-16T21:59:07.782Z,92.17
2023-02-16T22:01:41.291Z,89.13
2023-02-16T22:04:14.713Z,88.63
2023-02-16T22:06:49.470Z,87.93
2023-02-16T22:09:23.640Z,86.67
2023-02-16T22:11:55.154Z,87.97
2023-02-16T22:14:26.643Z,86.93
2023-02-16T22:16:58.348Z,88.83
2023-02-16T22:19:29.731Z,85.30
2023-02-16T22:22:02.472Z,86.30
2023-02-16T22:24:33.601Z,90.13
2023-02-16T22:27:05.269Z,91.97
2023-02-16T22:29:36.737Z,85.07
2023-02-16T22:32:08.211Z,86.37
2023-02-16T22:34:39.671Z,84.97
2023-02-16T22:37:12.450Z,88.97
2023-02-16T22:39:44.176Z,88.93
2023-02-16T22:42:15.335Z,87.03
2023-02-16T22:44:46.650Z,90.03
2023-02-16T22:47:17.898Z,86.07
2023-02-16T22:49:49.399Z,93.07
2023-02-16T22:52:21.834Z,90.73
2023-02-16T22:54:53.759Z,88.13
2023-02-16T22:57:25.014Z,89.13
2023-02-16T22:59:56.220Z,89.63
2023-02-16T23:02:27.553Z,87.60
2023-02-16T23:04:59.713Z,85.97
2023-02-16T23:07:33.049Z,89.63
2023-02-16T23:10:04.279Z,87.67
2023-02-16T23:12:35.819Z,87.53
2023-02-16T23:15:07.851Z,90.37
2023-02-16T23:17:39.214Z,85.77
2023-02-16T23:20:11.706Z,88.67
2023-02-16T23:22:44.796Z,87.40
2023-02-16T23:25:32.504Z,88.40
2023-02-16T23:28:04.429Z,84.70
2023-02-16T23:30:35.867Z,83.93
2023-02-16T23:33:07.132Z,82.83
2023-02-16T23:35:41.085Z,85.37
2023-02-16T23:38:16.594Z,90.47
2023-02-16T23:40:48.661Z,89.23
2023-02-16T23:43:20.347Z,88.10
2023-02-16T23:45:51.926Z,88.87
2023-02-16T23:48:23.079Z,86.60
2023-02-16T23:50:54.930Z,86.50
2023-02-16T23:53:29.231Z,86.53
2023-02-16T23:56:05.608Z,88.87
2023-02-16T23:58:42.114Z,88.70
